createdAt,value
2022-12-02T00:00:18.028Z,42.88
2022-12-02T00:02:46.358Z,39.88
2022-12-02T00:05:29.591Z,44.67
2022-12-02T00:08:00.564Z,39.55
2022-12-02T00:10:32.616Z,38.45
2022-12-02T00:13:11.868Z,37.83
2022-12-02T00:15:43.699Z,38.95
2022-12-02T00:18:12.947Z,39.40
2022-12-02T00:20:41.870Z,41.67
2022-12-02T00:23:10.668Z,41.47
2022-12-02T00:25:39.868Z,37.72
2022-12-02T00:28:08.041Z,39.80
2022-12-02T00:30:36.196Z,39.22
2022-12-02T00:33:05.797Z,34.90
2022-12-02T00:35:34.248Z,35.65
2022-12-02T00:38:02.381Z,36.92
2022-12-02T00:40:30.559Z,36.28
2022-12-02T00:43:20.941Z,39.90
2022-12-02T00:46:07.325Z,43.30
2022-12-02T00:48:37.100Z,38.00
2022-12-02T00:51:05.685Z,38.38
2022-12-02T00:53:34.288Z,36.38
2022-12-02T00:56:02.395Z,36.88
2022-12-02T00:58:31.352Z,41.05
2022-12-02T01:00:59.746Z,40.72
2022-12-02T01:03:28.022Z,36.70
2022-12-02T01:05:57.809Z,35.50
2022-12-02T01:08:27.584Z,38.65
2022-12-02T01:10:56.289Z,38.70
2022-12-02T01:13:26.556Z,42.38
2022-12-02T01:15:55.155Z,37.53
2022-12-02T01:18:23.621Z,36.45
2022-12-02T01:20:52.049Z,39.70
2022-12-02T01:23:21.697Z,36.10
2022-12-02T01:25:50.075Z,38.58
2022-12-02T01:28:19.056Z,38.03
2022-12-02T01:30:47.749Z,39.58
2022-12-02T01:33:16.368Z,36.95
2022-12-02T01:35:44.513Z,40.95
2022-12-02T01:38:14.333Z,38.78
2022-12-02T01:40:43.795Z,36.20
2022-12-02T01:43:12.672Z,38.17
2022-12-02T01:45:41.307Z,35.97
2022-12-02T01:48:09.867Z,40.22
2022-12-02T01:50:38.600Z,39.92
2022-12-02T01:53:06.995Z,35.50
2022-12-02T01:55:35.213Z,42.70
2022-12-02T01:58:05.354Z,39.92
2022-12-02T02:00:33.547Z,38.08
2022-12-02T02:03:01.788Z,39.85
2022-12-02T02:05:32.744Z,39.05
2022-12-02T02:08:06.998Z,38.05
2022-12-02T02:10:37.331Z,38.17
2022-12-02T02:13:08.535Z,40.42
2022-12-02T02:15:39.199Z,39.28
2022-12-02T02:18:07.913Z,34.65
2022-12-02T02:20:40.109Z,38.72
2022-12-02T02:23:22.837Z,35.88
2022-12-02T02:25:54.533Z,34.85
2022-12-02T02:28:27.458Z,46.17
2022-12-02T02:30:58.181Z,37.08
2022-12-02T02:33:34.999Z,39.95
2022-12-02T02:36:04.145Z,35.58
2022-12-02T02:38:37.059Z,39.80
2022-12-02T02:41:06.963Z,38.88
2022-12-02T02:43:36.921Z,39.80
2022-12-02T02:46:05.717Z,35.08
2022-12-02T02:48:39.485Z,39.20
2022-12-02T02:51:09.582Z,33.38
2022-12-02T02:53:39.827Z,41.95
2022-12-02T02:56:10.312Z,35.55
2022-12-02T02:58:39.860Z,40.30
2022-12-02T03:01:12.804Z,35.72
2022-12-02T03:03:45.957Z,40.22
2022-12-02T03:06:16.024Z,38.30
2022-12-02T03:08:49.518Z,38.25
2022-12-02T03:11:18.770Z,37.50
2022-12-02T03:13:49.708Z,33.75
2022-12-02T03:16:20.831Z,36.47
2022-12-02T03:18:50.129Z,38.38
2022-12-02T03:21:19.941Z,37.47
2022-12-02T03:23:51.495Z,36.47
2022-12-02T03:26:19.926Z,38.35
2022-12-02T03:28:49.164Z,40.50
2022-12-02T03:31:17.658Z,36.35
2022-12-02T03:33:46.169Z,40.55
2022-12-02T03:36:14.595Z,42.45
2022-12-02T03:38:43.565Z,40.42
2022-12-02T03:41:13.922Z,36.83
2022-12-02T03:43:42.319Z,38.97
2022-12-02T03:46:10.859Z,42.90
2022-12-02T03:48:40.716Z,43.88
2022-12-02T03:51:09.824Z,39.20
2022-12-02T03:53:38.323Z,40.42
2022-12-02T03:56:08.122Z,42.47
2022-12-02T03:58:40.287Z,38.65
2022-12-02T04:01:08.664Z,36.65
2022-12-02T04:03:36.792Z,40.30
2022-12-02T04:06:05.109Z,40.20
2022-12-02T04:08:33.475Z,42.20
2022-12-02T04:11:01.875Z,41.65
2022-12-02T04:13:29.931Z,41.53
2022-12-02T04:15:59.549Z,43.45
2022-12-02T04:18:27.948Z,42.05
2022-12-02T04:20:56.202Z,39.38
2022-12-02T04:23:24.294Z,40.80
2022-12-02T04:25:53.656Z,41.60
2022-12-02T04:28:21.682Z,42.25
2022-12-02T04:30:49.888Z,42.20
2022-12-02T04:33:19.324Z,38.63
2022-12-02T04:35:47.514Z,40.10
2022-12-02T04:38:15.912Z,41.15
2022-12-02T04:40:45.004Z,40.83
2022-12-02T04:43:13.223Z,41.03
2022-12-02T04:45:41.314Z,40.28
2022-12-02T04:48:09.396Z,38.42
2022-12-02T04:50:38.959Z,39.40
2022-12-02T04:53:06.995Z,43.03
2022-12-02T04:55:35.105Z,37.38
2022-12-02T04:58:03.222Z,37.47
2022-12-02T05:00:31.306Z,43.28
2022-12-02T05:02:59.381Z,39.15
2022-12-02T05:05:27.540Z,40.22
2022-12-02T05:07:57.278Z,38.50
2022-12-02T05:10:25.509Z,38.45
2022-12-02T05:12:53.647Z,39.53
2022-12-02T05:15:21.727Z,37.50
2022-12-02T05:17:50.082Z,42.35
2022-12-02T05:20:18.318Z,38.97
2022-12-02T05:22:46.467Z,37.55
2022-12-02T05:25:16.275Z,36.03
2022-12-02T05:27:44.329Z,40.75
2022-12-02T05:30:13.910Z,35.17
2022-12-02T05:32:41.974Z,33.47
2022-12-02T05:35:10.272Z,39.28
2022-12-02T05:37:38.370Z,39.38
2022-12-02T05:40:07.806Z,35.28
2022-12-02T05:42:37.335Z,38.33
2022-12-02T05:45:16.329Z,35.55
2022-12-02T05:47:46.102Z,39.80
2022-12-02T05:50:15.991Z,36.40
2022-12-02T05:52:44.843Z,40.15
2022-12-02T05:55:16.363Z,38.97
2022-12-02T05:57:46.683Z,34.58
2022-12-02T06:00:20.230Z,35.35
2022-12-02T06:02:50.265Z,35.35
2022-12-02T06:05:20.684Z,36.22
2022-12-02T06:07:54.369Z,39.30
2022-12-02T06:10:25.817Z,34.85
2022-12-02T06:12:58.839Z,40.97
2022-12-02T06:15:31.567Z,38.08
2022-12-02T06:17:59.759Z,34.83
2022-12-02T06:20:31.597Z,36.10
2022-12-02T06:23:01.776Z,34.65
2022-12-02T06:25:33.532Z,32.15
2022-12-02T06:28:11.413Z,37.05
2022-12-02T06:30:40.283Z,34.55
2022-12-02T06:33:19.508Z,32.05
2022-12-02T06:35:50.696Z,37.42
2022-12-02T06:38:28.972Z,32.90
2022-12-02T06:40:57.374Z,31.83
2022-12-02T06:43:31.160Z,34.33
2022-12-02T06:45:59.656Z,38.25
2022-12-02T06:48:31.396Z,33.40
2022-12-02T06:51:08.830Z,30.60
2022-12-02T06:53:40.258Z,36.78
2022-12-02T06:56:22.916Z,32.25
2022-12-02T06:58:58.664Z,30.40
2022-12-02T07:01:38.631Z,29.48
2022-12-02T07:04:32.823Z,36.83
2022-12-02T07:07:03.731Z,31.83
2022-12-02T07:09:38.514Z,31.83
2022-12-02T07:12:14.063Z,33.13
2022-12-02T07:14:47.627Z,34.78
2022-12-02T07:17:22.058Z,30.27
2022-12-02T07:19:55.520Z,31.92
2022-12-02T07:22:26.243Z,30.33
2022-12-02T07:24:56.922Z,30.05
2022-12-02T07:27:27.961Z,30.00
2022-12-02T07:29:59.490Z,31.33
2022-12-02T07:32:27.730Z,30.80
2022-12-02T07:34:56.912Z,31.35
2022-12-02T07:37:25.076Z,35.38
2022-12-02T07:39:53.177Z,31.70
2022-12-02T07:42:21.301Z,32.72
2022-12-02T07:44:49.508Z,35.63
2022-12-02T07:47:19.161Z,30.40
2022-12-02T07:49:47.436Z,32.50
2022-12-02T07:52:15.671Z,29.42
2022-12-02T07:54:43.983Z,30.30
2022-12-02T07:57:12.246Z,27.92
2022-12-02T07:59:40.469Z,26.55
2022-12-02T08:02:08.724Z,26.10
2022-12-02T08:04:38.414Z,25.90
2022-12-02T08:07:06.619Z,29.30
2022-12-02T08:09:34.947Z,26.50
2022-12-02T08:12:03.129Z,27.77
2022-12-02T08:14:31.429Z,27.50
2022-12-02T08:16:59.747Z,27.25
2022-12-02T08:19:27.939Z,29.35
2022-12-02T08:21:57.447Z,26.52
2022-12-02T08:24:25.601Z,27.00
2022-12-02T08:26:53.946Z,27.83
2022-12-02T08:29:22.048Z,25.92
2022-12-02T08:31:50.169Z,25.95
2022-12-02T08:34:18.518Z,24.27
2022-12-02T08:36:46.798Z,25.95
2022-12-02T08:39:16.334Z,24.83
2022-12-02T08:41:44.674Z,24.75
2022-12-02T08:44:12.856Z,23.23
2022-12-02T08:46:41.303Z,24.25
2022-12-02T08:49:09.553Z,21.48
2022-12-02T08:51:38.121Z,23.17
2022-12-02T08:54:06.286Z,23.10
2022-12-02T08:56:36.334Z,23.83
2022-12-02T08:59:05.187Z,24.70
2022-12-02T09:01:33.562Z,23.95
2022-12-02T09:04:01.864Z,21.25
2022-12-02T09:06:35.677Z,22.23
2022-12-02T09:09:05.181Z,19.85
2022-12-02T09:11:35.217Z,22.88
2022-12-02T09:14:03.538Z,24.23
2022-12-02T09:16:31.648Z,21.42
2022-12-02T09:18:59.831Z,18.27
2022-12-02T09:21:28.119Z,19.58
2022-12-02T09:23:56.265Z,19.25
2022-12-02T09:26:24.436Z,20.38
2022-12-02T09:28:53.965Z,20.10
2022-12-02T09:31:22.255Z,20.23
2022-12-02T09:33:50.568Z,22.05
2022-12-02T09:36:18.791Z,21.45
2022-12-02T09:38:47.174Z,22.42
2022-12-02T09:41:15.282Z,19.92
2022-12-02T09:43:43.833Z,20.55
2022-12-02T09:46:28.121Z,21.38
2022-12-02T09:48:56.997Z,20.83
2022-12-02T09:51:25.355Z,18.73
2022-12-02T09:53:53.987Z,19.02
2022-12-02T09:56:23.419Z,18.15
2022-12-02T09:58:54.485Z,26.55
2022-12-02T10:01:23.565Z,19.45
2022-12-02T10:03:53.652Z,20.48
2022-12-02T10:06:25.515Z,20.38
2022-12-02T10:08:54.333Z,20.95
2022-12-02T10:11:27.161Z,22.10
2022-12-02T10:13:56.349Z,20.13
2022-12-02T10:16:24.971Z,20.80
2022-12-02T10:18:58.660Z,18.90
2022-12-02T10:21:26.912Z,22.08
2022-12-02T10:23:58.391Z,20.60
2022-12-02T10:26:27.285Z,19.52
2022-12-02T10:29:05.481Z,21.40
2022-12-02T10:31:34.166Z,20.70
2022-12-02T10:34:05.842Z,19.48
2022-12-02T10:36:36.408Z,17.58
2022-12-02T10:39:23.264Z,19.98
2022-12-02T10:42:08.627Z,18.65
2022-12-02T10:44:38.663Z,19.00
2022-12-02T10:47:22.373Z,19.25
2022-12-02T10:49:55.519Z,19.48
2022-12-02T10:52:28.389Z,20.83
2022-12-02T10:54:58.648Z,18.08
2022-12-02T10:57:29.462Z,18.42
2022-12-02T11:00:00.375Z,18.60
2022-12-02T11:02:33.860Z,19.30
2022-12-02T11:05:14.870Z,17.40
2022-12-02T11:07:50.882Z,19.48
2022-12-02T11:10:21.883Z,17.38
2022-12-02T11:13:06.258Z,18.33
2022-12-02T11:15:43.974Z,17.27
2022-12-02T11:18:33.764Z,19.23
2022-12-02T11:21:38.571Z,18.55
2022-12-02T11:24:37.987Z,16.67
2022-12-02T11:27:18.213Z,18.20
2022-12-02T11:30:31.775Z,18.73
2022-12-02T11:32:59.876Z,16.92
2022-12-02T11:36:12.685Z,16.65
2022-12-02T11:38:48.056Z,16.25
2022-12-02T11:41:16.730Z,18.17
2022-12-02T11:43:56.877Z,17.92
2022-12-02T11:46:42.232Z,18.08
2022-12-02T11:49:29.253Z,20.98
2022-12-02T11:52:09.014Z,15.63
2022-12-02T11:54:40.357Z,15.55
2022-12-02T11:57:16.170Z,19.00
2022-12-02T11:59:44.483Z,18.98
2022-12-02T12:02:15.443Z,20.55
2022-12-02T12:04:44.415Z,20.42
2022-12-02T12:07:13.552Z,20.25
2022-12-02T12:09:43.041Z,19.17
2022-12-02T12:12:16.701Z,20.25
2022-12-02T12:15:02.079Z,22.38
2022-12-02T12:17:43.584Z,19.10
2022-12-02T12:20:42.856Z,18.90
2022-12-02T12:23:31.881Z,18.95
2022-12-02T12:26:01.739Z,18.65
2022-12-02T12:28:32.400Z,18.63
2022-12-02T12:31:01.825Z,18.67
2022-12-02T12:33:30.605Z,19.50
2022-12-02T12:35:59.919Z,17.55
2022-12-02T12:38:30.935Z,19.67
2022-12-02T12:41:00.887Z,22.50
2022-12-02T12:43:29.175Z,19.42
2022-12-02T12:45:57.462Z,21.45
2022-12-02T12:48:25.703Z,19.67
2022-12-02T12:50:53.976Z,19.40
2022-12-02T12:53:22.432Z,19.52
2022-12-02T12:55:50.744Z,21.33
2022-12-02T12:58:20.278Z,17.45
2022-12-02T13:00:48.431Z,19.88
2022-12-02T13:03:16.950Z,19.73
2022-12-02T13:05:45.098Z,20.27
2022-12-02T13:08:13.357Z,19.98
2022-12-02T13:10:41.668Z,21.77
2022-12-02T13:13:10.186Z,20.90
2022-12-02T13:15:39.831Z,21.27
2022-12-02T13:18:08.253Z,21.60
2022-12-02T13:20:36.906Z,19.95
2022-12-02T13:23:05.437Z,19.13
2022-12-02T13:25:33.722Z,21.08
2022-12-02T13:28:01.918Z,20.85
2022-12-02T13:30:30.253Z,21.27
2022-12-02T13:32:59.996Z,19.83
2022-12-02T13:35:28.547Z,20.67
2022-12-02T13:37:56.697Z,20.65
2022-12-02T13:40:24.821Z,22.10
2022-12-02T13:42:53.002Z,20.38
2022-12-02T13:45:21.123Z,21.67
2022-12-02T13:47:49.288Z,20.63
2022-12-02T13:50:18.969Z,23.00
2022-12-02T13:52:47.101Z,22.17
2022-12-02T13:55:15.278Z,21.75
2022-12-02T13:57:43.426Z,23.83
2022-12-02T14:00:13.947Z,23.20
2022-12-02T14:02:42.449Z,20.35
2022-12-02T14:05:11.659Z,21.85
2022-12-02T14:07:41.193Z,19.48
2022-12-02T14:10:10.782Z,23.50
2022-12-02T14:12:39.019Z,22.17
2022-12-02T14:15:07.890Z,20.23
2022-12-02T14:17:36.048Z,19.02
2022-12-02T14:20:04.459Z,20.75
2022-12-02T14:22:32.580Z,21.95
2022-12-02T14:25:03.277Z,21.77
2022-12-02T14:27:32.599Z,23.30
2022-12-02T14:30:00.739Z,20.50
2022-12-02T14:32:28.945Z,26.38
2022-12-02T14:34:57.036Z,22.33
2022-12-02T14:37:25.119Z,19.23
2022-12-02T14:39:53.153Z,23.65
2022-12-02T14:42:22.636Z,19.65
2022-12-02T14:44:51.020Z,22.50
2022-12-02T14:47:19.285Z,22.73
2022-12-02T14:49:47.444Z,23.52
2022-12-02T14:52:15.525Z,22.95
2022-12-02T14:54:43.696Z,25.25
2022-12-02T14:57:14.418Z,23.52
2022-12-02T14:59:44.733Z,23.45
2022-12-02T15:02:14.850Z,23.10
2022-12-02T15:04:43.521Z,22.75
2022-12-02T15:07:12.039Z,23.08
2022-12-02T15:09:40.323Z,23.38
2022-12-02T15:12:08.678Z,22.05
2022-12-02T15:14:37.185Z,21.63
2022-12-02T15:17:06.953Z,22.08
2022-12-02T15:19:35.184Z,22.27
2022-12-02T15:22:03.390Z,22.70
2022-12-02T15:24:31.823Z,24.08
2022-12-02T15:27:02.220Z,20.42
2022-12-02T15:29:30.776Z,23.63
2022-12-02T15:32:19.234Z,22.33
2022-12-02T15:34:47.736Z,20.88
2022-12-02T15:37:16.159Z,20.10
2022-12-02T15:39:44.540Z,20.17
2022-12-02T15:42:13.954Z,20.05
2022-12-02T15:44:42.346Z,22.15
2022-12-02T15:47:10.693Z,21.80
2022-12-02T15:49:40.495Z,19.42
2022-12-02T15:52:10.252Z,21.67
2022-12-02T15:54:38.544Z,30.10
2022-12-02T15:57:06.846Z,25.60
2022-12-02T15:59:35.121Z,26.13
2022-12-02T16:02:03.373Z,24.35
2022-12-02T16:04:32.725Z,23.80
2022-12-02T16:07:02.301Z,23.15
2022-12-02T16:09:30.753Z,18.00
2022-12-02T16:11:59.204Z,18.50
2022-12-02T16:14:27.560Z,21.23
2022-12-02T16:16:56.080Z,21.35
2022-12-02T16:19:24.437Z,18.80
2022-12-02T16:21:52.815Z,21.98
2022-12-02T16:24:22.349Z,23.42
2022-12-02T16:26:55.276Z,19.02
2022-12-02T16:29:23.923Z,28.80
2022-12-02T16:31:52.185Z,21.80
2022-12-02T16:34:20.790Z,24.52
2022-12-02T16:36:48.943Z,39.88
2022-12-02T16:39:17.161Z,20.73
2022-12-02T16:41:46.668Z,22.10
2022-12-02T16:44:14.734Z,27.67
2022-12-02T16:46:42.893Z,20.58
2022-12-02T16:49:11.163Z,23.17
2022-12-02T16:51:39.263Z,21.10
2022-12-02T16:54:07.561Z,31.42
2022-12-02T16:56:35.738Z,26.33
2022-12-02T16:59:05.302Z,25.70
2022-12-02T17:01:33.574Z,18.63
2022-12-02T17:04:01.899Z,18.90
2022-12-02T17:06:30.141Z,21.63
2022-12-02T17:08:58.508Z,18.08
2022-12-02T17:11:26.629Z,19.55
2022-12-02T17:13:54.725Z,20.27
2022-12-02T17:16:24.184Z,19.00
2022-12-02T17:18:52.571Z,16.02
2022-12-02T17:21:20.604Z,15.90
2022-12-02T17:23:49.130Z,18.17
2022-12-02T17:26:17.400Z,16.17
2022-12-02T17:28:45.580Z,17.05
2022-12-02T17:31:13.901Z,17.27
2022-12-02T17:33:43.354Z,17.60
2022-12-02T17:36:11.471Z,15.80
2022-12-02T17:38:56.106Z,17.35
2022-12-02T17:41:25.370Z,15.68
2022-12-02T17:43:54.162Z,17.27
2022-12-02T17:46:22.531Z,16.65
2022-12-02T17:48:52.218Z,18.52
2022-12-02T17:51:20.307Z,17.38
2022-12-02T17:53:48.521Z,16.83
2022-12-02T17:56:16.650Z,16.67
2022-12-02T17:58:44.742Z,14.90
2022-12-02T18:01:12.971Z,14.77
2022-12-02T18:03:41.626Z,17.23
2022-12-02T18:06:11.229Z,17.33
2022-12-02T18:08:39.452Z,15.38
2022-12-02T18:11:07.728Z,16.42
2022-12-02T18:13:36.086Z,19.00
2022-12-02T18:16:06.586Z,17.42
2022-12-02T18:18:35.283Z,14.77
2022-12-02T18:21:03.428Z,14.40
2022-12-02T18:23:32.952Z,15.63
2022-12-02T18:26:01.084Z,16.00
2022-12-02T18:28:29.267Z,15.27
2022-12-02T18:30:57.652Z,16.50
2022-12-02T18:33:25.953Z,14.90
2022-12-02T18:35:54.084Z,16.13
2022-12-02T18:38:22.240Z,15.38
2022-12-02T18:40:52.648Z,14.18
2022-12-02T18:43:20.811Z,15.07
2022-12-02T18:45:48.985Z,15.93
2022-12-02T18:48:17.201Z,14.35
2022-12-02T18:50:45.541Z,13.43
2022-12-02T18:53:13.667Z,15.88
2022-12-02T18:55:42.103Z,16.17
2022-12-02T18:58:11.670Z,15.73
2022-12-02T19:00:40.054Z,14.18
2022-12-02T19:03:08.412Z,15.13
2022-12-02T19:05:36.782Z,13.27
2022-12-02T19:08:05.129Z,14.25
2022-12-02T19:10:33.309Z,18.02
2022-12-02T19:13:01.407Z,16.40
2022-12-02T19:15:35.604Z,22.55
2022-12-02T19:18:06.516Z,15.90
2022-12-02T19:20:34.799Z,13.35
2022-12-02T19:23:02.965Z,14.82
2022-12-02T19:25:31.669Z,13.82
2022-12-02T19:27:59.797Z,20.90
2022-12-02T19:30:28.671Z,15.27
2022-12-02T19:32:58.222Z,13.70
2022-12-02T19:35:26.458Z,14.43
2022-12-02T19:37:57.096Z,15.30
2022-12-02T19:40:34.760Z,16.33
2022-12-02T19:43:05.018Z,13.70
2022-12-02T19:45:33.152Z,14.30
2022-12-02T19:48:02.727Z,16.27
2022-12-02T19:50:30.908Z,14.32
2022-12-02T19:52:59.061Z,16.35
2022-12-02T19:55:27.342Z,15.90
2022-12-02T19:57:55.511Z,19.17
2022-12-02T20:00:23.950Z,18.45
2022-12-02T20:02:52.391Z,14.50
2022-12-02T20:05:22.681Z,13.63
2022-12-02T20:07:51.243Z,15.50
2022-12-02T20:10:20.233Z,18.27
2022-12-02T20:12:49.357Z,14.07
2022-12-02T20:15:17.777Z,13.57
2022-12-02T20:17:45.925Z,12.75
2022-12-02T20:20:15.564Z,14.70
2022-12-02T20:22:45.379Z,15.90
2022-12-02T20:25:13.899Z,15.18
2022-12-02T20:27:44.002Z,16.55
2022-12-02T20:30:12.893Z,14.40
2022-12-02T20:32:41.004Z,13.57
2022-12-02T20:35:09.703Z,13.68
2022-12-02T20:37:40.724Z,12.90
2022-12-02T20:40:13.026Z,14.38
2022-12-02T20:42:41.445Z,15.57
2022-12-02T20:45:11.193Z,15.07
2022-12-02T20:47:39.354Z,14.55
2022-12-02T20:50:08.952Z,14.75
2022-12-02T20:52:37.129Z,14.50
2022-12-02T20:55:06.526Z,17.38
2022-12-02T20:57:36.260Z,15.38
2022-12-02T21:00:05.880Z,20.48
2022-12-02T21:02:34.165Z,16.45
2022-12-02T21:05:02.544Z,19.38
2022-12-02T21:07:30.817Z,15.70
2022-12-02T21:09:58.929Z,17.73
2022-12-02T21:12:27.101Z,16.77
2022-12-02T21:14:56.626Z,15.43
2022-12-02T21:17:26.605Z,19.67
2022-12-02T21:19:54.755Z,17.77
2022-12-02T21:22:23.001Z,17.10
2022-12-02T21:24:51.483Z,14.82
2022-12-02T21:27:20.171Z,15.40
2022-12-02T21:29:48.513Z,17.20
2022-12-02T21:32:18.333Z,16.48
2022-12-02T21:34:46.595Z,18.77
2022-12-02T21:37:14.900Z,16.52
2022-12-02T21:39:43.174Z,18.08
2022-12-02T21:42:11.496Z,19.05
2022-12-02T21:44:39.775Z,17.05
2022-12-02T21:47:08.116Z,21.15
2022-12-02T21:49:37.923Z,18.42
2022-12-02T21:52:06.254Z,18.33
2022-12-02T21:54:34.544Z,19.17
2022-12-02T21:57:04.119Z,18.73
2022-12-02T21:59:32.381Z,16.85
2022-12-02T22:02:00.809Z,16.02
2022-12-02T22:04:31.250Z,20.58
2022-12-02T22:07:15.147Z,15.35
2022-12-02T22:09:43.384Z,16.02
2022-12-02T22:12:11.650Z,18.95
2022-12-02T22:14:39.886Z,16.70
2022-12-02T22:17:08.093Z,17.48
2022-12-02T22:19:36.597Z,18.08
2022-12-02T22:22:06.322Z,18.35
2022-12-02T22:24:34.450Z,17.77
2022-12-02T22:27:02.669Z,18.33
2022-12-02T22:29:30.795Z,16.67
2022-12-02T22:31:59.088Z,17.08
2022-12-02T22:34:27.309Z,17.20
2022-12-02T22:36:55.465Z,17.30
2022-12-02T22:39:26.541Z,16.52
2022-12-02T22:41:54.859Z,16.50
2022-12-02T22:44:23.027Z,18.98
2022-12-02T22:46:51.189Z,16.20
2022-12-02T22:49:19.855Z,17.77
2022-12-02T22:51:48.230Z,18.33
2022-12-02T22:54:16.376Z,18.52
2022-12-02T22:56:46.089Z,17.33
2022-12-02T22:59:14.158Z,18.40
2022-12-02T23:01:42.432Z,21.27
2022-12-02T23:04:10.525Z,17.50
2022-12-02T23:06:38.626Z,17.45
2022-12-02T23:09:06.742Z,16.30
2022-12-02T23:11:34.815Z,15.85
2022-12-02T23:14:04.341Z,18.08
2022-12-02T23:16:32.656Z,16.52
2022-12-02T23:19:00.723Z,17.40
2022-12-02T23:21:28.883Z,17.45
2022-12-02T23:23:57.040Z,16.92
2022-12-02T23:26:25.169Z,18.60
2022-12-02T23:28:53.287Z,17.90
2022-12-02T23:31:22.881Z,17.90
2022-12-02T23:33:51.174Z,16.65
2022-12-02T23:36:20.315Z,16.90
2022-12-02T23:38:48.517Z,17.02
2022-12-02T23:41:17.394Z,18.73
2022-12-02T23:43:45.428Z,20.63
2022-12-02T23:46:13.651Z,17.80
2022-12-02T23:48:43.184Z,20.10
2022-12-02T23:51:11.273Z,18.98
2022-12-02T23:53:39.425Z,21.08
2022-12-02T23:56:07.920Z,19.20
2022-12-02T23:58:36.423Z,19.15
